Nanci-mar — CUCU2 — position and weather

sailwx.info

Track history (hours):
 
Tides and Currents Weather Stations Pressure Air Temp Water Temp Dewpoint Dewpoint Depression Visibility Wind Speed Wind Dir Waves Ship Positions

Nanci-mar

Last reported at 2018-Jul-12 12:54 UTC. Time now 2018-Jul-16 20:15 UTC.
Position N 41°14' W 008°45'.

Length 17 m.

Type: Fishing. MMSI: 263408240.

Date/timePositionNaut miles runAvg speedWind from/ knotsBaromVisibWave heightAir tempDewpointWater temp
2018-Jul-12 12:54N 41°14' W 008°45'3 8.2
2018-Jul-12 12:30N 41°11' W 008°43'1 0.1
2018-Jul-11 17:20N 41°11' W 008°42'0 0.3
2018-Jul-11 17:00N 41°11' W 008°42'0 0.0
2018-Jul-11 16:31N 41°11' W 008°42'0 0.0
2018-Jul-11 16:00N 41°11' W 008°42'0 0.0
2018-Jul-11 15:30N 41°11' W 008°42'0 0.0
2018-Jul-11 15:01N 41°11' W 008°42'0 0.0
2018-Jul-11 14:31N 41°11' W 008°42'0 0.0
2018-Jul-11 14:01N 41°11' W 008°42'3 6.4
2018-Jul-11 13:29N 41°09' W 008°45'4 0.3
2018-Jul-10 23:18N 41°08' W 008°50'3 8.1
2018-Jul-10 22:57N 41°09' W 008°46'3 7.4
2018-Jul-10 22:31N 41°11' W 008°42'0 0.1
2018-Jul-10 15:52N 41°11' W 008°42'0 0.0
2018-Jul-10 15:30N 41°11' W 008°42'0 0.0
2018-Jul-10 15:00N 41°11' W 008°42'0 0.3
2018-Jul-10 14:30N 41°11' W 008°42'3 0.2
2018-Jul-09 23:36N 41°09' W 008°45'1 8.1
2018-Jul-09 23:30N 41°10' W 008°44'2 0.3
2018-Jul-09 15:23N 41°11' W 008°42'0 0.0
2018-Jul-09 15:00N 41°11' W 008°42'3 5.1
2018-Jul-09 14:30N 41°09' W 008°44'2 0.1
2018-Jul-08 23:52N 41°08' W 008°47'3 8.2
2018-Jul-08 23:30N 41°10' W 008°43'  
2018-Jul-06 14:44N 41°11' W 008°42'0 0.0
2018-Jul-06 14:28N 41°11' W 008°42'0 0.0
2018-Jul-06 14:00N 41°11' W 008°42'0 0.0
2018-Jul-06 13:30N 41°11' W 008°42'3 5.4
2018-Jul-06 13:00N 41°09' W 008°45'3 0.2
2018-Jul-05 23:41N 41°09' W 008°48'2 8.5
2018-Jul-05 23:29N 41°09' W 008°46'4 7.6
2018-Jul-05 23:00N 41°11' W 008°42'0 0.0
2018-Jul-05 14:47N 41°11' W 008°42'0 0.8
2018-Jul-05 14:31N 41°11' W 008°42'4 0.2
2018-Jul-04 23:52N 41°09' W 008°46'3 8.7
2018-Jul-04 23:30N 41°10' W 008°43'1 0.1
2018-Jul-04 15:30N 41°11' W 008°42'0 0.0
2018-Jul-04 15:00N 41°11' W 008°42'0 0.0
2018-Jul-04 14:30N 41°11' W 008°42'2 4.5
2018-Jul-04 14:00N 41°09' W 008°44'1 0.1
2018-Jul-03 23:46N 41°09' W 008°46'2 8.1
2018-Jul-03 23:30N 41°10' W 008°43'1 0.2
2018-Jul-03 15:24N 41°11' W 008°42'0 0.0
2018-Jul-03 15:00N 41°11' W 008°42'0 0.0
2018-Jul-03 14:30N 41°11' W 008°42'2 3.1
2018-Jul-03 14:00N 41°10' W 008°44'4 0.3
2018-Jul-03 00:03N 41°09' W 008°48'0 7.6
2018-Jul-03 00:00N 41°09' W 008°48'4 7.8
2018-Jul-02 23:30N 41°10' W 008°43'1 0.2
2018-Jul-02 16:14N 41°11' W 008°42'0 0.0
2018-Jul-02 16:00N 41°11' W 008°42'0 0.0
2018-Jul-02 15:30N 41°11' W 008°42'0 0.0
2018-Jul-02 14:58N 41°11' W 008°42'1 3.2
2018-Jul-02 14:30N 41°10' W 008°44'  
Track history (hours):
 
Tides and Currents Weather Stations Pressure Air Temp Water Temp Dewpoint Dewpoint Depression Visibility Wind Speed Wind Dir Waves Ship Positions

Nanci-mar

Last reported at 2018-Jul-12 12:54 UTC. Time now 2018-Jul-16 20:15 UTC.
Position N 41°14' W 008°45'.

Length 17 m.

Type: Fishing. MMSI: 263408240.

Date/timePositionNaut miles runAvg speedWind from/ knotsBaromVisibWave heightAir tempDewpointWater temp
2018-Jul-12 12:54N 41°14' W 008°45'3 8.2
2018-Jul-12 12:30N 41°11' W 008°43'1 0.1
2018-Jul-11 17:20N 41°11' W 008°42'0 0.3
2018-Jul-11 17:00N 41°11' W 008°42'0 0.0
2018-Jul-11 16:31N 41°11' W 008°42'0 0.0
2018-Jul-11 16:00N 41°11' W 008°42'0 0.0
2018-Jul-11 15:30N 41°11' W 008°42'0 0.0
2018-Jul-11 15:01N 41°11' W 008°42'0 0.0
2018-Jul-11 14:31N 41°11' W 008°42'0 0.0
2018-Jul-11 14:01N 41°11' W 008°42'3 6.4
2018-Jul-11 13:29N 41°09' W 008°45'4 0.3
2018-Jul-10 23:18N 41°08' W 008°50'3 8.1
2018-Jul-10 22:57N 41°09' W 008°46'3 7.4
2018-Jul-10 22:31N 41°11' W 008°42'0 0.1
2018-Jul-10 15:52N 41°11' W 008°42'0 0.0
2018-Jul-10 15:30N 41°11' W 008°42'0 0.0
2018-Jul-10 15:00N 41°11' W 008°42'0 0.3
2018-Jul-10 14:30N 41°11' W 008°42'3 0.2
2018-Jul-09 23:36N 41°09' W 008°45'1 8.1
2018-Jul-09 23:30N 41°10' W 008°44'2 0.3
2018-Jul-09 15:23N 41°11' W 008°42'0 0.0
2018-Jul-09 15:00N 41°11' W 008°42'3 5.1
2018-Jul-09 14:30N 41°09' W 008°44'2 0.1
2018-Jul-08 23:52N 41°08' W 008°47'3 8.2
2018-Jul-08 23:30N 41°10' W 008°43'  
2018-Jul-06 14:44N 41°11' W 008°42'0 0.0
2018-Jul-06 14:28N 41°11' W 008°42'0 0.0
2018-Jul-06 14:00N 41°11' W 008°42'0 0.0
2018-Jul-06 13:30N 41°11' W 008°42'3 5.4
2018-Jul-06 13:00N 41°09' W 008°45'3 0.2
2018-Jul-05 23:41N 41°09' W 008°48'2 8.5
2018-Jul-05 23:29N 41°09' W 008°46'4 7.6
2018-Jul-05 23:00N 41°11' W 008°42'0 0.0
2018-Jul-05 14:47N 41°11' W 008°42'0 0.8
2018-Jul-05 14:31N 41°11' W 008°42'4 0.2
2018-Jul-04 23:52N 41°09' W 008°46'3 8.7
2018-Jul-04 23:30N 41°10' W 008°43'1 0.1
2018-Jul-04 15:30N 41°11' W 008°42'0 0.0
2018-Jul-04 15:00N 41°11' W 008°42'0 0.0
2018-Jul-04 14:30N 41°11' W 008°42'2 4.5
2018-Jul-04 14:00N 41°09' W 008°44'1 0.1
2018-Jul-03 23:46N 41°09' W 008°46'2 8.1
2018-Jul-03 23:30N 41°10' W 008°43'1 0.2
2018-Jul-03 15:24N 41°11' W 008°42'0 0.0
2018-Jul-03 15:00N 41°11' W 008°42'0 0.0
2018-Jul-03 14:30N 41°11' W 008°42'2 3.1
2018-Jul-03 14:00N 41°10' W 008°44'4 0.3
2018-Jul-03 00:03N 41°09' W 008°48'0 7.6
2018-Jul-03 00:00N 41°09' W 008°48'4 7.8
2018-Jul-02 23:30N 41°10' W 008°43'1 0.2
2018-Jul-02 16:14N 41°11' W 008°42'0 0.0
2018-Jul-02 16:00N 41°11' W 008°42'0 0.0
2018-Jul-02 15:30N 41°11' W 008°42'0 0.0
2018-Jul-02 14:58N 41°11' W 008°42'1 3.2
2018-Jul-02 14:30N 41°10' W 008°44'  

Dump ship's entire track history